sensor_id;sensor_type;location;lat;lon;timestamp;P1;durP1;ratioP1;P2;durP2;ratioP2
44145;SDS011;29809;52.432;4.780;2023-02-22T00:02:09;13.57;;;11.07;;
44145;SDS011;29809;52.432;4.780;2023-02-22T00:04:35;12.02;;;9.90;;
44145;SDS011;29809;52.432;4.780;2023-02-22T00:07:02;14.70;;;11.18;;
44145;SDS011;29809;52.432;4.780;2023-02-22T00:09:28;14.38;;;10.50;;
44145;SDS011;29809;52.432;4.780;2023-02-22T00:11:54;15.27;;;11.57;;
44145;SDS011;29809;52.432;4.780;2023-02-22T00:14:19;13.95;;;10.70;;
44145;SDS011;29809;52.432;4.780;2023-02-22T00:16:44;14.23;;;10.57;;
44145;SDS011;29809;52.432;4.780;2023-02-22T00:19:10;12.82;;;10.35;;
44145;SDS011;29809;52.432;4.780;2023-02-22T00:21:35;15.80;;;11.57;;
44145;SDS011;29809;52.432;4.780;2023-02-22T00:24:01;14.00;;;10.70;;
44145;SDS011;29809;52.432;4.780;2023-02-22T00:26:41;15.23;;;11.60;;
44145;SDS011;29809;52.432;4.780;2023-02-22T00:29:06;15.50;;;11.20;;
44145;SDS011;29809;52.432;4.780;2023-02-22T00:31:36;16.00;;;11.27;;
44145;SDS011;29809;52.432;4.780;2023-02-22T00:34:01;15.10;;;11.93;;
44145;SDS011;29809;52.432;4.780;2023-02-22T00:36:26;16.42;;;12.25;;
44145;SDS011;29809;52.432;4.780;2023-02-22T00:38:51;15.98;;;11.20;;
44145;SDS011;29809;52.432;4.780;2023-02-22T00:41:17;15.32;;;12.20;;
44145;SDS011;29809;52.432;4.780;2023-02-22T00:43:42;15.45;;;11.50;;
44145;SDS011;29809;52.432;4.780;2023-02-22T00:46:07;18.77;;;12.73;;
44145;SDS011;29809;52.432;4.780;2023-02-22T00:48:33;17.08;;;11.93;;
44145;SDS011;29809;52.432;4.780;2023-02-22T00:50:58;17.63;;;11.88;;
44145;SDS011;29809;52.432;4.780;2023-02-22T00:53:23;17.08;;;12.13;;
44145;SDS011;29809;52.432;4.780;2023-02-22T00:55:49;16.85;;;11.95;;
44145;SDS011;29809;52.432;4.780;2023-02-22T00:58:14;18.58;;;12.85;;
44145;SDS011;29809;52.432;4.780;2023-02-22T01:00:40;17.42;;;12.10;;
44145;SDS011;29809;52.432;4.780;2023-02-22T01:03:06;17.77;;;12.70;;
44145;SDS011;29809;52.432;4.780;2023-02-22T01:05:32;16.67;;;11.23;;
44145;SDS011;29809;52.432;4.780;2023-02-22T01:07:58;19.50;;;13.02;;
44145;SDS011;29809;52.432;4.780;2023-02-22T01:10:24;17.73;;;12.23;;
44145;SDS011;29809;52.432;4.780;2023-02-22T01:12:50;19.10;;;13.63;;
44145;SDS011;29809;52.432;4.780;2023-02-22T01:15:17;17.25;;;13.13;;
44145;SDS011;29809;52.432;4.780;2023-02-22T01:17:46;19.98;;;13.65;;
44145;SDS011;29809;52.432;4.780;2023-02-22T01:20:11;18.40;;;13.45;;
44145;SDS011;29809;52.432;4.780;2023-02-22T01:22:37;20.88;;;13.57;;
44145;SDS011;29809;52.432;4.780;2023-02-22T01:25:02;18.23;;;12.15;;
44145;SDS011;29809;52.432;4.780;2023-02-22T01:27:28;23.27;;;13.98;;
44145;SDS011;29809;52.432;4.780;2023-02-22T01:29:53;19.95;;;12.80;;
44145;SDS011;29809;52.432;4.780;2023-02-22T01:32:19;18.88;;;13.60;;
44145;SDS011;29809;52.432;4.780;2023-02-22T01:34:44;19.15;;;13.05;;
44145;SDS011;29809;52.432;4.780;2023-02-22T01:37:10;19.35;;;13.52;;
44145;SDS011;29809;52.432;4.780;2023-02-22T01:39:35;18.98;;;12.95;;
44145;SDS011;29809;52.432;4.780;2023-02-22T01:42:00;19.58;;;13.93;;
44145;SDS011;29809;52.432;4.780;2023-02-22T01:46:58;22.13;;;14.65;;
44145;SDS011;29809;52.432;4.780;2023-02-22T01:49:24;22.00;;;14.23;;
44145;SDS011;29809;52.432;4.780;2023-02-22T01:51:51;22.80;;;14.15;;
44145;SDS011;29809;52.432;4.780;2023-02-22T01:54:19;18.30;;;12.90;;
44145;SDS011;29809;52.432;4.780;2023-02-22T01:57:29;20.92;;;14.15;;
44145;SDS011;29809;52.432;4.780;2023-02-22T01:59:35;20.20;;;13.85;;
44145;SDS011;29809;52.432;4.780;2023-02-22T02:02:01;23.30;;;14.88;;
44145;SDS011;29809;52.432;4.780;2023-02-22T02:04:28;19.58;;;13.23;;
44145;SDS011;29809;52.432;4.780;2023-02-22T02:06:56;21.70;;;14.65;;
44145;SDS011;29809;52.432;4.780;2023-02-22T02:09:26;21.30;;;14.15;;
44145;SDS011;29809;52.432;4.780;2023-02-22T02:11:54;19.75;;;13.98;;
44145;SDS011;29809;52.432;4.780;2023-02-22T02:14:19;20.00;;;14.30;;
44145;SDS011;29809;52.432;4.780;2023-02-22T02:16:45;19.45;;;14.20;;
44145;SDS011;29809;52.432;4.780;2023-02-22T02:24:15;17.42;;;12.88;;
44145;SDS011;29809;52.432;4.780;2023-02-22T02:26:52;18.33;;;12.68;;
44145;SDS011;29809;52.432;4.780;2023-02-22T02:29:27;19.02;;;13.88;;
44145;SDS011;29809;52.432;4.780;2023-02-22T02:34:30;19.90;;;14.98;;
44145;SDS011;29809;52.432;4.780;2023-02-22T02:37:01;19.10;;;13.48;;
44145;SDS011;29809;52.432;4.780;2023-02-22T02:39:34;17.95;;;13.13;;
44145;SDS011;29809;52.432;4.780;2023-02-22T02:42:02;20.15;;;13.88;;
44145;SDS011;29809;52.432;4.780;2023-02-22T02:44:44;17.80;;;13.80;;
44145;SDS011;29809;52.432;4.780;2023-02-22T02:47:12;17.83;;;12.35;;
44145;SDS011;29809;52.432;4.780;2023-02-22T02:49:45;18.52;;;13.52;;
44145;SDS011;29809;52.432;4.780;2023-02-22T02:52:12;15.95;;;12.55;;
44145;SDS011;29809;52.432;4.780;2023-02-22T02:54:40;16.40;;;12.85;;
44145;SDS011;29809;52.432;4.780;2023-02-22T02:57:05;18.83;;;13.32;;
44145;SDS011;29809;52.432;4.780;2023-02-22T02:59:35;16.67;;;12.38;;
44145;SDS011;29809;52.432;4.780;2023-02-22T03:02:14;17.52;;;13.13;;
44145;SDS011;29809;52.432;4.780;2023-02-22T03:05:45;16.08;;;12.30;;
44145;SDS011;29809;52.432;4.780;2023-02-22T03:12:41;15.48;;;11.95;;
44145;SDS011;29809;52.432;4.780;2023-02-22T03:20:29;14.15;;;11.70;;
44145;SDS011;29809;52.432;4.780;2023-02-22T03:22:57;17.88;;;12.85;;
44145;SDS011;29809;52.432;4.780;2023-02-22T03:25:23;14.82;;;11.75;;
44145;SDS011;29809;52.432;4.780;2023-02-22T03:27:53;15.25;;;12.00;;
44145;SDS011;29809;52.432;4.780;2023-02-22T03:30:26;16.70;;;13.13;;
44145;SDS011;29809;52.432;4.780;2023-02-22T03:32:55;14.80;;;12.43;;
44145;SDS011;29809;52.432;4.780;2023-02-22T03:35:23;14.70;;;12.30;;
44145;SDS011;29809;52.432;4.780;2023-02-22T03:37:49;15.52;;;12.35;;
44145;SDS011;29809;52.432;4.780;2023-02-22T03:40:19;16.77;;;12.82;;
44145;SDS011;29809;52.432;4.780;2023-02-22T03:42:50;16.17;;;12.50;;
44145;SDS011;29809;52.432;4.780;2023-02-22T03:45:17;16.38;;;12.73;;
44145;SDS011;29809;52.432;4.780;2023-02-22T03:47:46;16.92;;;13.57;;
44145;SDS011;29809;52.432;4.780;2023-02-22T03:50:18;15.23;;;12.68;;
44145;SDS011;29809;52.432;4.780;2023-02-22T03:52:45;17.38;;;13.38;;
44145;SDS011;29809;52.432;4.780;2023-02-22T03:55:12;16.35;;;12.35;;
44145;SDS011;29809;52.432;4.780;2023-02-22T03:57:39;16.77;;;12.93;;
44145;SDS011;29809;52.432;4.780;2023-02-22T04:00:09;17.02;;;12.45;;
44145;SDS011;29809;52.432;4.780;2023-02-22T04:02:35;15.15;;;11.90;;
44145;SDS011;29809;52.432;4.780;2023-02-22T04:05:00;14.38;;;11.60;;
44145;SDS011;29809;52.432;4.780;2023-02-22T04:07:26;13.35;;;11.57;;
44145;SDS011;29809;52.432;4.780;2023-02-22T04:09:51;15.48;;;12.10;;
44145;SDS011;29809;52.432;4.780;2023-02-22T04:12:16;13.80;;;11.90;;
44145;SDS011;29809;52.432;4.780;2023-02-22T04:14:42;15.23;;;12.18;;
44145;SDS011;29809;52.432;4.780;2023-02-22T04:17:07;14.77;;;12.27;;
44145;SDS011;29809;52.432;4.780;2023-02-22T04:19:32;15.05;;;11.88;;
44145;SDS011;29809;52.432;4.780;2023-02-22T04:21:57;15.45;;;12.73;;
44145;SDS011;29809;52.432;4.780;2023-02-22T04:24:23;14.43;;;12.02;;
44145;SDS011;29809;52.432;4.780;2023-02-22T04:26:48;13.57;;;11.13;;
44145;SDS011;29809;52.432;4.780;2023-02-22T04:29:13;15.05;;;12.13;;
44145;SDS011;29809;52.432;4.780;2023-02-22T04:31:39;13.20;;;11.05;;
44145;SDS011;29809;52.432;4.780;2023-02-22T04:34:04;12.73;;;10.98;;
44145;SDS011;29809;52.432;4.780;2023-02-22T04:36:30;14.98;;;11.57;;
44145;SDS011;29809;52.432;4.780;2023-02-22T04:38:56;13.48;;;11.48;;
44145;SDS011;29809;52.432;4.780;2023-02-22T04:41:21;14.25;;;11.88;;
44145;SDS011;29809;52.432;4.780;2023-02-22T04:43:46;14.57;;;12.60;;
44145;SDS011;29809;52.432;4.780;2023-02-22T04:46:11;15.60;;;12.65;;
44145;SDS011;29809;52.432;4.780;2023-02-22T04:48:37;16.35;;;12.27;;
44145;SDS011;29809;52.432;4.780;2023-02-22T04:51:02;15.10;;;12.25;;
44145;SDS011;29809;52.432;4.780;2023-02-22T04:53:27;13.80;;;11.45;;
44145;SDS011;29809;52.432;4.780;2023-02-22T04:55:53;14.35;;;11.52;;
44145;SDS011;29809;52.432;4.780;2023-02-22T04:58:18;13.32;;;11.23;;
44145;SDS011;29809;52.432;4.780;2023-02-22T05:00:43;14.55;;;11.60;;
44145;SDS011;29809;52.432;4.780;2023-02-22T05:03:08;14.10;;;11.45;;
44145;SDS011;29809;52.432;4.780;2023-02-22T05:05:34;14.63;;;11.77;;
44145;SDS011;29809;52.432;4.780;2023-02-22T05:07:59;14.18;;;11.90;;
44145;SDS011;29809;52.432;4.780;2023-02-22T05:10:24;12.32;;;10.73;;
44145;SDS011;29809;52.432;4.780;2023-02-22T05:12:50;14.85;;;12.07;;
44145;SDS011;29809;52.432;4.780;2023-02-22T05:15:16;15.57;;;12.40;;
44145;SDS011;29809;52.432;4.780;2023-02-22T05:17:42;13.80;;;12.05;;
44145;SDS011;29809;52.432;4.780;2023-02-22T05:20:08;14.77;;;11.30;;
44145;SDS011;29809;52.432;4.780;2023-02-22T05:22:34;13.85;;;11.05;;
44145;SDS011;29809;52.432;4.780;2023-02-22T05:25:00;15.70;;;12.43;;
44145;SDS011;29809;52.432;4.780;2023-02-22T05:27:25;16.75;;;11.70;;
44145;SDS011;29809;52.432;4.780;2023-02-22T05:29:50;15.07;;;11.77;;
44145;SDS011;29809;52.432;4.780;2023-02-22T05:32:16;14.85;;;11.63;;
44145;SDS011;29809;52.432;4.780;2023-02-22T05:34:41;13.32;;;11.05;;
44145;SDS011;29809;52.432;4.780;2023-02-22T05:37:06;16.52;;;11.85;;
44145;SDS011;29809;52.432;4.780;2023-02-22T05:39:31;14.60;;;11.80;;
44145;SDS011;29809;52.432;4.780;2023-02-22T05:41:57;15.43;;;12.15;;
44145;SDS011;29809;52.432;4.780;2023-02-22T05:44:22;16.40;;;12.52;;
44145;SDS011;29809;52.432;4.780;2023-02-22T05:46:47;19.10;;;12.10;;
44145;SDS011;29809;52.432;4.780;2023-02-22T05:49:13;17.33;;;11.95;;
44145;SDS011;29809;52.432;4.780;2023-02-22T05:51:38;16.02;;;11.57;;
44145;SDS011;29809;52.432;4.780;2023-02-22T05:54:03;15.43;;;11.95;;
44145;SDS011;29809;52.432;4.780;2023-02-22T05:56:29;14.02;;;11.15;;
44145;SDS011;29809;52.432;4.780;2023-02-22T05:58:54;13.20;;;11.00;;
44145;SDS011;29809;52.432;4.780;2023-02-22T06:01:21;14.25;;;11.95;;
44145;SDS011;29809;52.432;4.780;2023-02-22T06:03:46;13.93;;;11.80;;
44145;SDS011;29809;52.432;4.780;2023-02-22T06:06:12;195.13;;;55.80;;
44145;SDS011;29809;52.432;4.780;2023-02-22T06:08:37;122.90;;;38.78;;
44145;SDS011;29809;52.432;4.780;2023-02-22T06:11:03;131.50;;;44.25;;
44145;SDS011;29809;52.432;4.780;2023-02-22T06:13:28;137.10;;;43.83;;
44145;SDS011;29809;52.432;4.780;2023-02-22T06:15:53;91.55;;;37.25;;
44145;SDS011;29809;52.432;4.780;2023-02-22T06:18:18;95.65;;;35.08;;
44145;SDS011;29809;52.432;4.780;2023-02-22T06:20:44;91.82;;;34.58;;
44145;SDS011;29809;52.432;4.780;2023-02-22T06:23:09;82.05;;;33.72;;
44145;SDS011;29809;52.432;4.780;2023-02-22T06:25:35;69.07;;;32.00;;
44145;SDS011;29809;52.432;4.780;2023-02-22T06:28:00;80.53;;;32.03;;
44145;SDS011;29809;52.432;4.780;2023-02-22T06:30:26;66.35;;;28.33;;
44145;SDS011;29809;52.432;4.780;2023-02-22T06:32:51;68.07;;;29.15;;
44145;SDS011;29809;52.432;4.780;2023-02-22T06:35:17;57.53;;;27.60;;
44145;SDS011;29809;52.432;4.780;2023-02-22T06:37:42;60.50;;;26.85;;
44145;SDS011;29809;52.432;4.780;2023-02-22T06:40:07;53.10;;;25.48;;
44145;SDS011;29809;52.432;4.780;2023-02-22T06:42:35;50.30;;;25.13;;
44145;SDS011;29809;52.432;4.780;2023-02-22T06:45:00;54.17;;;24.95;;
44145;SDS011;29809;52.432;4.780;2023-02-22T06:47:25;48.70;;;25.50;;
44145;SDS011;29809;52.432;4.780;2023-02-22T06:49:51;43.20;;;24.02;;
44145;SDS011;29809;52.432;4.780;2023-02-22T06:52:17;43.47;;;22.75;;
44145;SDS011;29809;52.432;4.780;2023-02-22T06:54:42;39.85;;;22.35;;
44145;SDS011;29809;52.432;4.780;2023-02-22T06:57:07;42.05;;;22.33;;
44145;SDS011;29809;52.432;4.780;2023-02-22T06:59:34;44.15;;;23.00;;
44145;SDS011;29809;52.432;4.780;2023-02-22T07:01:59;36.83;;;20.25;;
44145;SDS011;29809;52.432;4.780;2023-02-22T07:04:24;37.10;;;20.17;;
44145;SDS011;29809;52.432;4.780;2023-02-22T07:06:49;37.08;;;20.90;;
44145;SDS011;29809;52.432;4.780;2023-02-22T07:09:16;29.33;;;17.85;;
44145;SDS011;29809;52.432;4.780;2023-02-22T07:11:42;27.42;;;18.42;;
44145;SDS011;29809;52.432;4.780;2023-02-22T07:14:07;30.95;;;18.60;;
44145;SDS011;29809;52.432;4.780;2023-02-22T07:16:32;30.77;;;19.33;;
44145;SDS011;29809;52.432;4.780;2023-02-22T07:18:58;34.50;;;17.65;;
44145;SDS011;29809;52.432;4.780;2023-02-22T07:21:24;25.27;;;16.95;;
44145;SDS011;29809;52.432;4.780;2023-02-22T07:23:50;30.48;;;16.75;;
44145;SDS011;29809;52.432;4.780;2023-02-22T07:26:16;27.05;;;16.15;;
44145;SDS011;29809;52.432;4.780;2023-02-22T07:28:41;25.42;;;17.00;;
44145;SDS011;29809;52.432;4.780;2023-02-22T07:31:06;25.58;;;15.90;;
44145;SDS011;29809;52.432;4.780;2023-02-22T07:33:32;28.42;;;16.48;;
44145;SDS011;29809;52.432;4.780;2023-02-22T07:35:57;23.23;;;16.08;;
44145;SDS011;29809;52.432;4.780;2023-02-22T07:38:22;22.95;;;16.17;;
44145;SDS011;29809;52.432;4.780;2023-02-22T07:40:47;23.42;;;15.73;;
44145;SDS011;29809;52.432;4.780;2023-02-22T07:45:41;24.13;;;16.30;;
44145;SDS011;29809;52.432;4.780;2023-02-22T07:48:07;23.80;;;15.55;;
44145;SDS011;29809;52.432;4.780;2023-02-22T07:50:33;24.73;;;16.38;;
44145;SDS011;29809;52.432;4.780;2023-02-22T07:52:59;24.17;;;15.82;;
44145;SDS011;29809;52.432;4.780;2023-02-22T07:55:26;25.38;;;16.05;;
44145;SDS011;29809;52.432;4.780;2023-02-22T07:57:52;22.15;;;14.93;;
44145;SDS011;29809;52.432;4.780;2023-02-22T08:00:22;20.70;;;14.43;;
44145;SDS011;29809;52.432;4.780;2023-02-22T08:02:47;21.02;;;14.27;;
44145;SDS011;29809;52.432;4.780;2023-02-22T08:05:13;20.17;;;15.10;;
44145;SDS011;29809;52.432;4.780;2023-02-22T08:07:39;20.38;;;14.60;;
44145;SDS011;29809;52.432;4.780;2023-02-22T08:10:04;20.97;;;14.70;;
44145;SDS011;29809;52.432;4.780;2023-02-22T08:12:32;21.77;;;15.38;;
44145;SDS011;29809;52.432;4.780;2023-02-22T08:14:57;20.90;;;14.32;;
44145;SDS011;29809;52.432;4.780;2023-02-22T08:17:22;19.10;;;14.63;;
44145;SDS011;29809;52.432;4.780;2023-02-22T08:19:48;18.67;;;14.38;;
44145;SDS011;29809;52.432;4.780;2023-02-22T08:22:13;17.70;;;13.60;;
44145;SDS011;29809;52.432;4.780;2023-02-22T08:24:38;19.87;;;14.23;;
44145;SDS011;29809;52.432;4.780;2023-02-22T08:27:04;19.58;;;14.20;;
44145;SDS011;29809;52.432;4.780;2023-02-22T08:29:30;22.58;;;14.63;;
44145;SDS011;29809;52.432;4.780;2023-02-22T08:31:57;20.58;;;15.30;;
44145;SDS011;29809;52.432;4.780;2023-02-22T08:34:23;19.83;;;15.35;;
44145;SDS011;29809;52.432;4.780;2023-02-22T08:36:48;20.73;;;15.30;;
44145;SDS011;29809;52.432;4.780;2023-02-22T08:39:14;17.77;;;13.82;;
44145;SDS011;29809;52.432;4.780;2023-02-22T08:41:39;19.52;;;14.73;;
44145;SDS011;29809;52.432;4.780;2023-02-22T08:44:04;18.52;;;14.13;;
44145;SDS011;29809;52.432;4.780;2023-02-22T08:46:29;17.37;;;13.70;;
44145;SDS011;29809;52.432;4.780;2023-02-22T08:48:55;17.70;;;13.13;;
44145;SDS011;29809;52.432;4.780;2023-02-22T08:51:20;18.92;;;14.23;;
44145;SDS011;29809;52.432;4.780;2023-02-22T08:53:45;18.27;;;13.25;;
44145;SDS011;29809;52.432;4.780;2023-02-22T08:56:10;16.75;;;12.95;;
44145;SDS011;29809;52.432;4.780;2023-02-22T08:58:36;17.50;;;12.68;;
44145;SDS011;29809;52.432;4.780;2023-02-22T09:01:01;16.38;;;12.40;;
44145;SDS011;29809;52.432;4.780;2023-02-22T09:03:26;15.93;;;12.05;;
44145;SDS011;29809;52.432;4.780;2023-02-22T09:05:52;15.55;;;12.52;;
44145;SDS011;29809;52.432;4.780;2023-02-22T09:08:17;16.10;;;12.40;;
44145;SDS011;29809;52.432;4.780;2023-02-22T09:10:43;16.70;;;12.77;;
44145;SDS011;29809;52.432;4.780;2023-02-22T09:13:09;16.15;;;12.85;;
44145;SDS011;29809;52.432;4.780;2023-02-22T09:15:35;15.82;;;12.00;;
44145;SDS011;29809;52.432;4.780;2023-02-22T09:18:00;14.50;;;12.02;;
44145;SDS011;29809;52.432;4.780;2023-02-22T09:20:25;14.13;;;11.40;;
44145;SDS011;29809;52.432;4.780;2023-02-22T09:22:51;17.27;;;11.93;;
44145;SDS011;29809;52.432;4.780;2023-02-22T09:25:17;14.77;;;11.80;;
44145;SDS011;29809;52.432;4.780;2023-02-22T09:27:45;12.70;;;11.07;;
44145;SDS011;29809;52.432;4.780;2023-02-22T09:30:19;32.97;;;21.23;;
44145;SDS011;29809;52.432;4.780;2023-02-22T09:32:47;24.02;;;13.63;;
44145;SDS011;29809;52.432;4.780;2023-02-22T09:35:12;22.73;;;14.93;;
44145;SDS011;29809;52.432;4.780;2023-02-22T09:37:38;18.95;;;14.02;;
44145;SDS011;29809;52.432;4.780;2023-02-22T09:40:03;18.50;;;12.90;;
44145;SDS011;29809;52.432;4.780;2023-02-22T09:42:34;17.15;;;12.90;;
44145;SDS011;29809;52.432;4.780;2023-02-22T09:45:05;20.55;;;13.40;;
44145;SDS011;29809;52.432;4.780;2023-02-22T09:47:44;16.02;;;12.55;;
44145;SDS011;29809;52.432;4.780;2023-02-22T09:50:12;15.02;;;10.93;;
44145;SDS011;29809;52.432;4.780;2023-02-22T09:57:52;18.13;;;13.23;;
44145;SDS011;29809;52.432;4.780;2023-02-22T10:00:21;15.23;;;11.85;;
44145;SDS011;29809;52.432;4.780;2023-02-22T10:02:53;16.58;;;10.88;;
44145;SDS011;29809;52.432;4.780;2023-02-22T10:05:23;16.67;;;12.00;;
44145;SDS011;29809;52.432;4.780;2023-02-22T10:08:01;16.10;;;11.43;;
44145;SDS011;29809;52.432;4.780;2023-02-22T10:10:34;15.45;;;11.32;;
44145;SDS011;29809;52.432;4.780;2023-02-22T10:13:22;15.10;;;10.97;;
44145;SDS011;29809;52.432;4.780;2023-02-22T10:18:25;14.70;;;11.05;;
44145;SDS011;29809;52.432;4.780;2023-02-22T10:20:53;15.82;;;11.43;;
44145;SDS011;29809;52.432;4.780;2023-02-22T10:25:54;12.40;;;10.82;;
44145;SDS011;29809;52.432;4.780;2023-02-22T10:28:22;13.33;;;10.73;;
44145;SDS011;29809;52.432;4.780;2023-02-22T10:30:50;15.07;;;11.30;;
44145;SDS011;29809;52.432;4.780;2023-02-22T10:33:20;13.55;;;9.88;;
44145;SDS011;29809;52.432;4.780;2023-02-22T10:35:46;14.45;;;10.10;;
44145;SDS011;29809;52.432;4.780;2023-02-22T10:41:31;14.40;;;11.57;;
44145;SDS011;29809;52.432;4.780;2023-02-22T10:43:57;13.35;;;10.63;;
44145;SDS011;29809;52.432;4.780;2023-02-22T10:46:23;13.75;;;10.50;;
44145;SDS011;29809;52.432;4.780;2023-02-22T10:48:50;13.10;;;10.23;;
44145;SDS011;29809;52.432;4.780;2023-02-22T10:51:16;11.90;;;9.93;;
44145;SDS011;29809;52.432;4.780;2023-02-22T10:53:41;13.05;;;9.77;;
44145;SDS011;29809;52.432;4.780;2023-02-22T10:58:42;16.23;;;11.18;;
44145;SDS011;29809;52.432;4.780;2023-02-22T11:01:32;12.77;;;10.07;;
44145;SDS011;29809;52.432;4.780;2023-02-22T11:04:15;11.02;;;9.32;;
44145;SDS011;29809;52.432;4.780;2023-02-22T11:06:45;12.85;;;9.65;;
44145;SDS011;29809;52.432;4.780;2023-02-22T11:09:18;12.15;;;10.13;;
44145;SDS011;29809;52.432;4.780;2023-02-22T11:11:46;12.15;;;9.98;;
44145;SDS011;29809;52.432;4.780;2023-02-22T11:14:23;12.48;;;9.68;;
44145;SDS011;29809;52.432;4.780;2023-02-22T11:16:50;14.25;;;10.30;;
44145;SDS011;29809;52.432;4.780;2023-02-22T11:21:42;12.05;;;10.10;;
44145;SDS011;29809;52.432;4.780;2023-02-22T11:24:09;12.05;;;9.70;;
44145;SDS011;29809;52.432;4.780;2023-02-22T11:26:42;13.80;;;10.32;;
44145;SDS011;29809;52.432;4.780;2023-02-22T11:31:51;12.63;;;9.38;;
44145;SDS011;29809;52.432;4.780;2023-02-22T11:36:52;12.70;;;9.48;;
44145;SDS011;29809;52.432;4.780;2023-02-22T11:41:46;13.55;;;9.70;;
44145;SDS011;29809;52.432;4.780;2023-02-22T11:46:45;12.07;;;9.40;;
44145;SDS011;29809;52.432;4.780;2023-02-22T11:49:11;11.60;;;9.65;;
44145;SDS011;29809;52.432;4.780;2023-02-22T11:56:43;11.45;;;8.65;;
44145;SDS011;29809;52.432;4.780;2023-02-22T12:04:47;10.32;;;8.80;;
44145;SDS011;29809;52.432;4.780;2023-02-22T12:07:34;9.27;;;7.75;;
44145;SDS011;29809;52.432;4.780;2023-02-22T12:15:02;9.85;;;8.80;;
44145;SDS011;29809;52.432;4.780;2023-02-22T12:17:32;9.40;;;7.93;;
44145;SDS011;29809;52.432;4.780;2023-02-22T12:22:35;9.75;;;8.00;;
44145;SDS011;29809;52.432;4.780;2023-02-22T12:25:19;9.63;;;7.78;;
44145;SDS011;29809;52.432;4.780;2023-02-22T12:27:52;9.32;;;7.75;;
44145;SDS011;29809;52.432;4.780;2023-02-22T12:30:26;10.00;;;8.50;;
44145;SDS011;29809;52.432;4.780;2023-02-22T12:32:54;8.65;;;7.53;;
44145;SDS011;29809;52.432;4.780;2023-02-22T12:35:24;8.33;;;7.40;;
44145;SDS011;29809;52.432;4.780;2023-02-22T12:50:32;7.65;;;6.47;;
44145;SDS011;29809;52.432;4.780;2023-02-22T12:55:56;9.40;;;7.47;;
44145;SDS011;29809;52.432;4.780;2023-02-22T12:58:24;8.77;;;7.80;;
44145;SDS011;29809;52.432;4.780;2023-02-22T13:05:41;7.10;;;6.40;;
44145;SDS011;29809;52.432;4.780;2023-02-22T13:08:18;8.60;;;7.72;;
44145;SDS011;29809;52.432;4.780;2023-02-22T13:13:18;7.22;;;6.53;;
44145;SDS011;29809;52.432;4.780;2023-02-22T13:24:02;9.45;;;8.13;;
44145;SDS011;29809;52.432;4.780;2023-02-22T13:26:32;8.70;;;7.77;;
44145;SDS011;29809;52.432;4.780;2023-02-22T13:29:09;8.75;;;7.63;;
44145;SDS011;29809;52.432;4.780;2023-02-22T13:39:39;10.55;;;8.50;;
44145;SDS011;29809;52.432;4.780;2023-02-22T13:44:38;8.65;;;7.75;;
44145;SDS011;29809;52.432;4.780;2023-02-22T13:51:58;9.27;;;7.80;;
44145;SDS011;29809;52.432;4.780;2023-02-22T13:56:50;8.98;;;7.90;;
44145;SDS011;29809;52.432;4.780;2023-02-22T13:59:24;7.60;;;6.80;;
44145;SDS011;29809;52.432;4.780;2023-02-22T14:01:50;8.85;;;7.53;;
44145;SDS011;29809;52.432;4.780;2023-02-22T14:06:55;9.52;;;7.65;;
44145;SDS011;29809;52.432;4.780;2023-02-22T14:10:02;7.78;;;7.07;;
44145;SDS011;29809;52.432;4.780;2023-02-22T14:12:09;8.25;;;7.45;;
44145;SDS011;29809;52.432;4.780;2023-02-22T14:14:34;8.05;;;7.25;;
44145;SDS011;29809;52.432;4.780;2023-02-22T14:17:24;8.80;;;7.28;;
44145;SDS011;29809;52.432;4.780;2023-02-22T14:22:38;9.15;;;7.40;;
44145;SDS011;29809;52.432;4.780;2023-02-22T14:25:04;7.65;;;6.85;;
44145;SDS011;29809;52.432;4.780;2023-02-22T14:27:39;8.18;;;7.15;;
44145;SDS011;29809;52.432;4.780;2023-02-22T14:30:05;7.88;;;6.97;;
44145;SDS011;29809;52.432;4.780;2023-02-22T14:32:31;7.32;;;6.50;;
44145;SDS011;29809;52.432;4.780;2023-02-22T14:34:57;8.88;;;7.97;;
44145;SDS011;29809;52.432;4.780;2023-02-22T14:37:47;8.15;;;7.13;;
44145;SDS011;29809;52.432;4.780;2023-02-22T14:42:42;7.97;;;7.18;;
44145;SDS011;29809;52.432;4.780;2023-02-22T14:45:22;8.45;;;7.53;;
44145;SDS011;29809;52.432;4.780;2023-02-22T14:47:50;8.65;;;7.82;;
44145;SDS011;29809;52.432;4.780;2023-02-22T14:50:27;8.32;;;7.50;;
44145;SDS011;29809;52.432;4.780;2023-02-22T14:53:03;8.98;;;8.05;;
44145;SDS011;29809;52.432;4.780;2023-02-22T14:55:31;8.73;;;7.80;;
44145;SDS011;29809;52.432;4.780;2023-02-22T14:57:59;9.60;;;8.52;;
44145;SDS011;29809;52.432;4.780;2023-02-22T15:00:27;9.65;;;8.63;;
44145;SDS011;29809;52.432;4.780;2023-02-22T15:03:00;8.88;;;7.93;;
44145;SDS011;29809;52.432;4.780;2023-02-22T15:05:26;10.13;;;9.02;;
44145;SDS011;29809;52.432;4.780;2023-02-22T15:07:59;10.35;;;8.40;;
44145;SDS011;29809;52.432;4.780;2023-02-22T15:10:37;10.00;;;8.00;;
44145;SDS011;29809;52.432;4.780;2023-02-22T15:13:04;9.40;;;8.48;;
44145;SDS011;29809;52.432;4.780;2023-02-22T15:15:34;10.32;;;8.65;;
44145;SDS011;29809;52.432;4.780;2023-02-22T15:17:59;9.27;;;7.95;;
44145;SDS011;29809;52.432;4.780;2023-02-22T15:20:25;12.00;;;8.10;;
44145;SDS011;29809;52.432;4.780;2023-02-22T15:22:51;10.63;;;8.80;;
44145;SDS011;29809;52.432;4.780;2023-02-22T15:25:26;9.65;;;8.38;;
44145;SDS011;29809;52.432;4.780;2023-02-22T15:27:52;10.48;;;9.38;;
44145;SDS011;29809;52.432;4.780;2023-02-22T15:30:24;10.20;;;9.05;;
44145;SDS011;29809;52.432;4.780;2023-02-22T15:32:50;9.52;;;8.50;;
44145;SDS011;29809;52.432;4.780;2023-02-22T15:37:57;11.40;;;9.75;;
44145;SDS011;29809;52.432;4.780;2023-02-22T15:40:22;11.38;;;9.52;;
44145;SDS011;29809;52.432;4.780;2023-02-22T15:42:51;10.77;;;9.57;;
44145;SDS011;29809;52.432;4.780;2023-02-22T15:45:21;11.07;;;9.52;;
44145;SDS011;29809;52.432;4.780;2023-02-22T15:47:48;10.25;;;9.00;;
44145;SDS011;29809;52.432;4.780;2023-02-22T15:55:14;10.35;;;9.27;;
44145;SDS011;29809;52.432;4.780;2023-02-22T15:57:40;9.73;;;8.73;;
44145;SDS011;29809;52.432;4.780;2023-02-22T16:00:06;11.15;;;9.90;;
44145;SDS011;29809;52.432;4.780;2023-02-22T16:02:42;10.40;;;9.10;;
44145;SDS011;29809;52.432;4.780;2023-02-22T16:05:11;11.20;;;10.10;;
44145;SDS011;29809;52.432;4.780;2023-02-22T16:07:37;11.00;;;9.88;;
44145;SDS011;29809;52.432;4.780;2023-02-22T16:10:03;11.88;;;10.10;;
44145;SDS011;29809;52.432;4.780;2023-02-22T16:12:33;12.15;;;9.82;;
44145;SDS011;29809;52.432;4.780;2023-02-22T16:14:59;11.98;;;9.90;;
44145;SDS011;29809;52.432;4.780;2023-02-22T16:17:37;14.93;;;10.38;;
44145;SDS011;29809;52.432;4.780;2023-02-22T16:22:36;13.52;;;11.30;;
44145;SDS011;29809;52.432;4.780;2023-02-22T16:27:46;12.98;;;11.35;;
44145;SDS011;29809;52.432;4.780;2023-02-22T16:32:47;13.65;;;11.05;;
44145;SDS011;29809;52.432;4.780;2023-02-22T16:35:13;16.40;;;11.20;;
44145;SDS011;29809;52.432;4.780;2023-02-22T16:37:46;15.57;;;12.65;;
44145;SDS011;29809;52.432;4.780;2023-02-22T16:40:19;18.83;;;12.73;;
44145;SDS011;29809;52.432;4.780;2023-02-22T16:42:46;16.88;;;11.43;;
44145;SDS011;29809;52.432;4.780;2023-02-22T16:45:14;13.80;;;11.18;;
44145;SDS011;29809;52.432;4.780;2023-02-22T16:47:39;14.07;;;12.40;;
44145;SDS011;29809;52.432;4.780;2023-02-22T16:50:05;16.00;;;12.68;;
44145;SDS011;29809;52.432;4.780;2023-02-22T16:52:30;15.30;;;13.70;;